sensor_id;sensor_type;location;lat;lon;timestamp;P1;durP1;ratioP1;P2;durP2;ratioP2
78372;SDS011;67656;52.074;4.758;2023-07-09T00:01:47;8.93;;;4.72;;
78372;SDS011;67656;52.074;4.758;2023-07-09T00:06:48;9.80;;;4.53;;
78372;SDS011;67656;52.074;4.758;2023-07-09T00:11:49;9.38;;;5.10;;
78372;SDS011;67656;52.074;4.758;2023-07-09T00:16:50;12.82;;;6.00;;
78372;SDS011;67656;52.074;4.758;2023-07-09T00:21:50;10.02;;;5.70;;
78372;SDS011;67656;52.074;4.758;2023-07-09T00:26:51;8.48;;;5.40;;
78372;SDS011;67656;52.074;4.758;2023-07-09T00:31:52;10.93;;;5.72;;
78372;SDS011;67656;52.074;4.758;2023-07-09T00:36:52;12.57;;;6.30;;
78372;SDS011;67656;52.074;4.758;2023-07-09T00:41:53;12.38;;;6.40;;
78372;SDS011;67656;52.074;4.758;2023-07-09T00:52:00;12.57;;;6.35;;
78372;SDS011;67656;52.074;4.758;2023-07-09T01:02:08;12.18;;;6.70;;
78372;SDS011;67656;52.074;4.758;2023-07-09T01:07:09;10.88;;;6.22;;
78372;SDS011;67656;52.074;4.758;2023-07-09T01:12:09;13.65;;;6.35;;
78372;SDS011;67656;52.074;4.758;2023-07-09T01:17:10;11.63;;;6.72;;
78372;SDS011;67656;52.074;4.758;2023-07-09T01:22:12;12.88;;;7.55;;
78372;SDS011;67656;52.074;4.758;2023-07-09T01:27:16;13.85;;;7.45;;
78372;SDS011;67656;52.074;4.758;2023-07-09T01:32:18;14.40;;;8.38;;
78372;SDS011;67656;52.074;4.758;2023-07-09T01:37:21;17.48;;;8.23;;
78372;SDS011;67656;52.074;4.758;2023-07-09T01:42:26;13.80;;;8.13;;
78372;SDS011;67656;52.074;4.758;2023-07-09T01:47:27;16.40;;;8.57;;
78372;SDS011;67656;52.074;4.758;2023-07-09T01:52:28;16.98;;;9.23;;
78372;SDS011;67656;52.074;4.758;2023-07-09T01:57:30;14.67;;;8.00;;
78372;SDS011;67656;52.074;4.758;2023-07-09T02:02:30;17.50;;;9.27;;
78372;SDS011;67656;52.074;4.758;2023-07-09T02:07:31;15.02;;;8.73;;
78372;SDS011;67656;52.074;4.758;2023-07-09T02:12:32;13.75;;;8.13;;
78372;SDS011;67656;52.074;4.758;2023-07-09T02:17:32;13.52;;;8.30;;
78372;SDS011;67656;52.074;4.758;2023-07-09T02:22:33;16.95;;;9.05;;
78372;SDS011;67656;52.074;4.758;2023-07-09T02:27:35;13.25;;;7.63;;
78372;SDS011;67656;52.074;4.758;2023-07-09T02:32:36;15.00;;;8.52;;
78372;SDS011;67656;52.074;4.758;2023-07-09T02:37:38;13.93;;;8.95;;
78372;SDS011;67656;52.074;4.758;2023-07-09T02:42:39;19.30;;;9.13;;
78372;SDS011;67656;52.074;4.758;2023-07-09T02:47:39;18.75;;;9.80;;
78372;SDS011;67656;52.074;4.758;2023-07-09T02:52:41;13.75;;;8.18;;
78372;SDS011;67656;52.074;4.758;2023-07-09T02:57:41;17.13;;;9.38;;
78372;SDS011;67656;52.074;4.758;2023-07-09T03:02:42;15.88;;;9.43;;
78372;SDS011;67656;52.074;4.758;2023-07-09T03:07:42;17.85;;;9.15;;
78372;SDS011;67656;52.074;4.758;2023-07-09T03:12:43;16.08;;;9.90;;
78372;SDS011;67656;52.074;4.758;2023-07-09T03:17:43;17.15;;;9.38;;
78372;SDS011;67656;52.074;4.758;2023-07-09T03:22:43;15.93;;;9.10;;
78372;SDS011;67656;52.074;4.758;2023-07-09T03:27:46;15.80;;;9.18;;
78372;SDS011;67656;52.074;4.758;2023-07-09T03:32:48;16.77;;;9.90;;
78372;SDS011;67656;52.074;4.758;2023-07-09T03:37:48;20.83;;;11.48;;
78372;SDS011;67656;52.074;4.758;2023-07-09T03:42:49;23.75;;;13.02;;
78372;SDS011;67656;52.074;4.758;2023-07-09T03:47:49;21.08;;;11.25;;
78372;SDS011;67656;52.074;4.758;2023-07-09T03:52:50;20.10;;;10.60;;
78372;SDS011;67656;52.074;4.758;2023-07-09T03:57:50;23.08;;;12.40;;
78372;SDS011;67656;52.074;4.758;2023-07-09T04:02:51;18.25;;;11.63;;
78372;SDS011;67656;52.074;4.758;2023-07-09T04:07:52;20.85;;;12.10;;
78372;SDS011;67656;52.074;4.758;2023-07-09T04:12:52;18.42;;;11.20;;
78372;SDS011;67656;52.074;4.758;2023-07-09T04:17:53;18.42;;;10.55;;
78372;SDS011;67656;52.074;4.758;2023-07-09T04:22:53;19.75;;;11.13;;
78372;SDS011;67656;52.074;4.758;2023-07-09T04:27:54;19.80;;;11.45;;
78372;SDS011;67656;52.074;4.758;2023-07-09T04:32:54;19.65;;;11.32;;
78372;SDS011;67656;52.074;4.758;2023-07-09T04:37:55;18.00;;;11.70;;
78372;SDS011;67656;52.074;4.758;2023-07-09T04:42:55;21.55;;;12.38;;
78372;SDS011;67656;52.074;4.758;2023-07-09T04:47:56;17.55;;;11.13;;
78372;SDS011;67656;52.074;4.758;2023-07-09T04:52:56;18.90;;;11.80;;
78372;SDS011;67656;52.074;4.758;2023-07-09T04:57:57;19.50;;;11.75;;
78372;SDS011;67656;52.074;4.758;2023-07-09T05:02:57;18.95;;;11.80;;
78372;SDS011;67656;52.074;4.758;2023-07-09T05:07:58;19.63;;;11.30;;
78372;SDS011;67656;52.074;4.758;2023-07-09T05:12:58;20.58;;;11.68;;
78372;SDS011;67656;52.074;4.758;2023-07-09T05:17:58;21.45;;;12.07;;
78372;SDS011;67656;52.074;4.758;2023-07-09T05:23:01;17.40;;;10.90;;
78372;SDS011;67656;52.074;4.758;2023-07-09T05:34:52;17.77;;;10.27;;
78372;SDS011;67656;52.074;4.758;2023-07-09T05:39:55;18.40;;;11.13;;
78372;SDS011;67656;52.074;4.758;2023-07-09T05:45:01;19.45;;;10.20;;
78372;SDS011;67656;52.074;4.758;2023-07-09T05:50:17;17.08;;;10.40;;
78372;SDS011;67656;52.074;4.758;2023-07-09T05:55:30;16.65;;;9.60;;
78372;SDS011;67656;52.074;4.758;2023-07-09T06:00:49;16.90;;;10.77;;
78372;SDS011;67656;52.074;4.758;2023-07-09T06:05:58;15.43;;;8.90;;
78372;SDS011;67656;52.074;4.758;2023-07-09T06:10:59;15.35;;;9.10;;
78372;SDS011;67656;52.074;4.758;2023-07-09T06:16:01;13.77;;;8.73;;
78372;SDS011;67656;52.074;4.758;2023-07-09T06:21:02;13.50;;;8.93;;
78372;SDS011;67656;52.074;4.758;2023-07-09T06:26:05;13.93;;;9.17;;
78372;SDS011;67656;52.074;4.758;2023-07-09T06:31:06;14.63;;;9.23;;
78372;SDS011;67656;52.074;4.758;2023-07-09T06:36:11;15.93;;;10.40;;
78372;SDS011;67656;52.074;4.758;2023-07-09T06:41:15;15.30;;;9.67;;
78372;SDS011;67656;52.074;4.758;2023-07-09T06:46:17;19.23;;;12.65;;
78372;SDS011;67656;52.074;4.758;2023-07-09T06:51:21;22.85;;;13.32;;
78372;SDS011;67656;52.074;4.758;2023-07-09T06:56:21;24.57;;;13.03;;
78372;SDS011;67656;52.074;4.758;2023-07-09T07:01:22;22.13;;;13.93;;
78372;SDS011;67656;52.074;4.758;2023-07-09T07:06:22;20.77;;;14.30;;
78372;SDS011;67656;52.074;4.758;2023-07-09T07:11:23;23.83;;;16.43;;
78372;SDS011;67656;52.074;4.758;2023-07-09T07:16:24;20.90;;;12.17;;
78372;SDS011;67656;52.074;4.758;2023-07-09T07:21:24;18.60;;;11.37;;
78372;SDS011;67656;52.074;4.758;2023-07-09T07:26:25;21.43;;;11.90;;
78372;SDS011;67656;52.074;4.758;2023-07-09T07:31:25;19.83;;;11.53;;
78372;SDS011;67656;52.074;4.758;2023-07-09T07:36:37;17.08;;;9.80;;
78372;SDS011;67656;52.074;4.758;2023-07-09T07:41:38;14.73;;;9.70;;
78372;SDS011;67656;52.074;4.758;2023-07-09T07:46:38;11.50;;;8.32;;
78372;SDS011;67656;52.074;4.758;2023-07-09T07:51:41;15.43;;;8.70;;
78372;SDS011;67656;52.074;4.758;2023-07-09T07:56:45;12.85;;;7.63;;
78372;SDS011;67656;52.074;4.758;2023-07-09T08:01:45;17.15;;;9.23;;
78372;SDS011;67656;52.074;4.758;2023-07-09T08:06:51;12.32;;;7.18;;
78372;SDS011;67656;52.074;4.758;2023-07-09T08:11:51;11.18;;;7.05;;
78372;SDS011;67656;52.074;4.758;2023-07-09T08:16:52;11.67;;;7.20;;
78372;SDS011;67656;52.074;4.758;2023-07-09T08:21:52;10.03;;;6.00;;
78372;SDS011;67656;52.074;4.758;2023-07-09T08:26:53;11.60;;;5.93;;
78372;SDS011;67656;52.074;4.758;2023-07-09T08:32:00;10.13;;;5.90;;
78372;SDS011;67656;52.074;4.758;2023-07-09T08:37:00;10.13;;;6.33;;
78372;SDS011;67656;52.074;4.758;2023-07-09T08:52:26;11.15;;;6.50;;
78372;SDS011;67656;52.074;4.758;2023-07-09T08:57:29;11.93;;;6.97;;
78372;SDS011;67656;52.074;4.758;2023-07-09T09:02:35;11.13;;;6.53;;
78372;SDS011;67656;52.074;4.758;2023-07-09T09:07:45;12.15;;;6.85;;
78372;SDS011;67656;52.074;4.758;2023-07-09T09:12:58;13.32;;;8.35;;
78372;SDS011;67656;52.074;4.758;2023-07-09T09:18:13;16.95;;;10.23;;
78372;SDS011;67656;52.074;4.758;2023-07-09T09:23:19;14.07;;;8.85;;
78372;SDS011;67656;52.074;4.758;2023-07-09T09:28:20;13.52;;;9.07;;
78372;SDS011;67656;52.074;4.758;2023-07-09T09:33:21;10.97;;;7.37;;
78372;SDS011;67656;52.074;4.758;2023-07-09T09:38:22;14.13;;;7.03;;
78372;SDS011;67656;52.074;4.758;2023-07-09T09:43:32;11.13;;;7.20;;
78372;SDS011;67656;52.074;4.758;2023-07-09T09:48:37;11.13;;;6.60;;
78372;SDS011;67656;52.074;4.758;2023-07-09T09:53:38;9.00;;;5.40;;
78372;SDS011;67656;52.074;4.758;2023-07-09T09:58:41;9.07;;;5.20;;
78372;SDS011;67656;52.074;4.758;2023-07-09T10:03:42;9.75;;;5.07;;
78372;SDS011;67656;52.074;4.758;2023-07-09T10:13:43;8.15;;;5.15;;
78372;SDS011;67656;52.074;4.758;2023-07-09T10:24:14;7.32;;;5.30;;
78372;SDS011;67656;52.074;4.758;2023-07-09T10:35:11;10.32;;;5.45;;
78372;SDS011;67656;52.074;4.758;2023-07-09T10:40:14;9.20;;;5.60;;
78372;SDS011;67656;52.074;4.758;2023-07-09T10:45:40;7.97;;;5.63;;
78372;SDS011;67656;52.074;4.758;2023-07-09T10:50:55;9.90;;;5.95;;
78372;SDS011;67656;52.074;4.758;2023-07-09T10:55:59;10.52;;;6.43;;
78372;SDS011;67656;52.074;4.758;2023-07-09T11:01:05;9.38;;;5.63;;
78372;SDS011;67656;52.074;4.758;2023-07-09T11:06:27;10.55;;;5.68;;
78372;SDS011;67656;52.074;4.758;2023-07-09T11:11:40;10.73;;;6.05;;
78372;SDS011;67656;52.074;4.758;2023-07-09T11:16:45;8.20;;;5.50;;
78372;SDS011;67656;52.074;4.758;2023-07-09T11:21:59;9.40;;;6.15;;
78372;SDS011;67656;52.074;4.758;2023-07-09T11:27:02;10.52;;;6.93;;
78372;SDS011;67656;52.074;4.758;2023-07-09T11:32:18;10.63;;;7.32;;
78372;SDS011;67656;52.074;4.758;2023-07-09T11:37:24;9.80;;;6.10;;
78372;SDS011;67656;52.074;4.758;2023-07-09T11:42:29;11.15;;;6.13;;
78372;SDS011;67656;52.074;4.758;2023-07-09T11:47:45;9.18;;;5.65;;
78372;SDS011;67656;52.074;4.758;2023-07-09T11:52:51;9.57;;;5.85;;
78372;SDS011;67656;52.074;4.758;2023-07-09T11:57:55;3.92;;;2.92;;
78372;SDS011;67656;52.074;4.758;2023-07-09T12:02:57;4.50;;;2.80;;
78372;SDS011;67656;52.074;4.758;2023-07-09T12:07:58;6.57;;;3.50;;
78372;SDS011;67656;52.074;4.758;2023-07-09T12:13:02;6.35;;;3.30;;
78372;SDS011;67656;52.074;4.758;2023-07-09T12:18:03;5.65;;;2.40;;
78372;SDS011;67656;52.074;4.758;2023-07-09T12:23:31;3.65;;;2.00;;
78372;SDS011;67656;52.074;4.758;2023-07-09T12:28:32;4.20;;;2.22;;
78372;SDS011;67656;52.074;4.758;2023-07-09T12:33:33;3.50;;;2.20;;
78372;SDS011;67656;52.074;4.758;2023-07-09T12:38:42;5.90;;;2.25;;
78372;SDS011;67656;52.074;4.758;2023-07-09T12:43:44;5.65;;;2.38;;
78372;SDS011;67656;52.074;4.758;2023-07-09T12:48:46;5.50;;;2.30;;
78372;SDS011;67656;52.074;4.758;2023-07-09T12:53:47;5.93;;;2.50;;
78372;SDS011;67656;52.074;4.758;2023-07-09T12:58:50;7.10;;;3.10;;
78372;SDS011;67656;52.074;4.758;2023-07-09T13:04:03;8.40;;;4.18;;
78372;SDS011;67656;52.074;4.758;2023-07-09T13:44:35;9.35;;;3.80;;
78372;SDS011;67656;52.074;4.758;2023-07-09T13:49:46;12.13;;;4.38;;
78372;SDS011;67656;52.074;4.758;2023-07-09T13:54:55;11.20;;;4.53;;
78372;SDS011;67656;52.074;4.758;2023-07-09T14:00:14;14.98;;;5.93;;
78372;SDS011;67656;52.074;4.758;2023-07-09T14:05:31;14.38;;;6.22;;
78372;SDS011;67656;52.074;4.758;2023-07-09T14:10:31;12.93;;;5.40;;
78372;SDS011;67656;52.074;4.758;2023-07-09T14:15:35;12.27;;;6.10;;
78372;SDS011;67656;52.074;4.758;2023-07-09T14:20:39;10.82;;;4.97;;
78372;SDS011;67656;52.074;4.758;2023-07-09T14:25:46;9.95;;;4.30;;
78372;SDS011;67656;52.074;4.758;2023-07-09T14:31:42;9.75;;;3.78;;
78372;SDS011;67656;52.074;4.758;2023-07-09T14:36:55;15.00;;;5.93;;
78372;SDS011;67656;52.074;4.758;2023-07-09T14:41:56;17.60;;;6.30;;
78372;SDS011;67656;52.074;4.758;2023-07-09T14:47:17;18.17;;;7.72;;
78372;SDS011;67656;52.074;4.758;2023-07-09T14:52:20;16.08;;;7.55;;
78372;SDS011;67656;52.074;4.758;2023-07-09T14:57:21;13.55;;;6.63;;
78372;SDS011;67656;52.074;4.758;2023-07-09T15:02:33;11.60;;;6.25;;
78372;SDS011;67656;52.074;4.758;2023-07-09T15:07:39;11.18;;;5.28;;
78372;SDS011;67656;52.074;4.758;2023-07-09T15:12:40;11.90;;;5.00;;
78372;SDS011;67656;52.074;4.758;2023-07-09T15:17:41;8.38;;;4.70;;
78372;SDS011;67656;52.074;4.758;2023-07-09T15:22:42;8.85;;;4.18;;
78372;SDS011;67656;52.074;4.758;2023-07-09T15:27:44;7.85;;;3.80;;
78372;SDS011;67656;52.074;4.758;2023-07-09T15:32:47;9.13;;;3.83;;
78372;SDS011;67656;52.074;4.758;2023-07-09T15:37:49;7.25;;;3.80;;
78372;SDS011;67656;52.074;4.758;2023-07-09T15:42:54;9.77;;;4.07;;
78372;SDS011;67656;52.074;4.758;2023-07-09T15:47:57;13.02;;;4.15;;
78372;SDS011;67656;52.074;4.758;2023-07-09T15:53:08;8.98;;;4.55;;
78372;SDS011;67656;52.074;4.758;2023-07-09T15:58:20;10.82;;;4.40;;
78372;SDS011;67656;52.074;4.758;2023-07-09T16:03:23;7.93;;;4.18;;
78372;SDS011;67656;52.074;4.758;2023-07-09T16:08:24;8.45;;;4.00;;
78372;SDS011;67656;52.074;4.758;2023-07-09T16:13:24;9.15;;;4.07;;
78372;SDS011;67656;52.074;4.758;2023-07-09T16:18:26;8.98;;;4.10;;
78372;SDS011;67656;52.074;4.758;2023-07-09T16:23:27;7.90;;;3.97;;
78372;SDS011;67656;52.074;4.758;2023-07-09T16:28:27;9.68;;;4.25;;
78372;SDS011;67656;52.074;4.758;2023-07-09T16:33:31;7.78;;;3.28;;
78372;SDS011;67656;52.074;4.758;2023-07-09T16:38:34;6.85;;;3.08;;
78372;SDS011;67656;52.074;4.758;2023-07-09T16:48:38;4.05;;;1.60;;
78372;SDS011;67656;52.074;4.758;2023-07-09T16:59:21;4.93;;;2.00;;
78372;SDS011;67656;52.074;4.758;2023-07-09T17:09:26;5.28;;;1.88;;
78372;SDS011;67656;52.074;4.758;2023-07-09T17:14:26;5.00;;;2.05;;
78372;SDS011;67656;52.074;4.758;2023-07-09T17:19:27;6.65;;;2.63;;
78372;SDS011;67656;52.074;4.758;2023-07-09T17:24:27;6.57;;;2.55;;
78372;SDS011;67656;52.074;4.758;2023-07-09T17:29:28;7.45;;;2.40;;
78372;SDS011;67656;52.074;4.758;2023-07-09T17:34:29;6.05;;;2.95;;
78372;SDS011;67656;52.074;4.758;2023-07-09T17:39:29;5.28;;;3.00;;
78372;SDS011;67656;52.074;4.758;2023-07-09T17:44:29;6.70;;;3.03;;
78372;SDS011;67656;52.074;4.758;2023-07-09T17:49:31;6.03;;;2.45;;
78372;SDS011;67656;52.074;4.758;2023-07-09T17:54:32;7.22;;;2.58;;
78372;SDS011;67656;52.074;4.758;2023-07-09T17:59:33;6.95;;;2.50;;
78372;SDS011;67656;52.074;4.758;2023-07-09T18:04:42;7.40;;;2.47;;
78372;SDS011;67656;52.074;4.758;2023-07-09T18:09:50;5.55;;;2.30;;
78372;SDS011;67656;52.074;4.758;2023-07-09T18:20:25;4.90;;;2.10;;
78372;SDS011;67656;52.074;4.758;2023-07-09T18:25:34;3.95;;;1.80;;
78372;SDS011;67656;52.074;4.758;2023-07-09T18:36:47;5.90;;;2.22;;
78372;SDS011;67656;52.074;4.758;2023-07-09T18:41:48;7.43;;;2.25;;
78372;SDS011;67656;52.074;4.758;2023-07-09T18:52:58;6.47;;;1.90;;
78372;SDS011;67656;52.074;4.758;2023-07-09T18:58:05;4.15;;;1.80;;
78372;SDS011;67656;52.074;4.758;2023-07-09T19:09:42;5.03;;;2.20;;
78372;SDS011;67656;52.074;4.758;2023-07-09T19:14:48;7.13;;;2.10;;
78372;SDS011;67656;52.074;4.758;2023-07-09T19:19:51;7.13;;;2.05;;
78372;SDS011;67656;52.074;4.758;2023-07-09T19:25:11;5.75;;;1.90;;
78372;SDS011;67656;52.074;4.758;2023-07-09T19:36:35;5.45;;;2.55;;
78372;SDS011;67656;52.074;4.758;2023-07-09T19:42:16;5.68;;;1.70;;
78372;SDS011;67656;52.074;4.758;2023-07-09T19:47:54;6.90;;;2.40;;
78372;SDS011;67656;52.074;4.758;2023-07-09T19:53:27;5.13;;;1.73;;
78372;SDS011;67656;52.074;4.758;2023-07-09T19:58:39;5.30;;;1.75;;
78372;SDS011;67656;52.074;4.758;2023-07-09T20:03:46;5.60;;;1.90;;
78372;SDS011;67656;52.074;4.758;2023-07-09T20:08:50;6.10;;;2.17;;
78372;SDS011;67656;52.074;4.758;2023-07-09T20:19:47;9.37;;;2.00;;
78372;SDS011;67656;52.074;4.758;2023-07-09T20:24:47;6.43;;;1.90;;
78372;SDS011;67656;52.074;4.758;2023-07-09T20:29:48;7.32;;;1.75;;
78372;SDS011;67656;52.074;4.758;2023-07-09T20:34:53;3.83;;;2.05;;
78372;SDS011;67656;52.074;4.758;2023-07-09T20:39:54;4.18;;;1.60;;
78372;SDS011;67656;52.074;4.758;2023-07-09T20:44:54;9.63;;;2.08;;
78372;SDS011;67656;52.074;4.758;2023-07-09T20:49:55;4.80;;;1.73;;
78372;SDS011;67656;52.074;4.758;2023-07-09T20:54:55;6.18;;;2.30;;
78372;SDS011;67656;52.074;4.758;2023-07-09T20:59:56;6.75;;;2.45;;
78372;SDS011;67656;52.074;4.758;2023-07-09T21:04:56;4.93;;;1.80;;
78372;SDS011;67656;52.074;4.758;2023-07-09T21:09:59;5.03;;;1.70;;
78372;SDS011;67656;52.074;4.758;2023-07-09T21:20:00;6.40;;;1.65;;
78372;SDS011;67656;52.074;4.758;2023-07-09T21:25:02;3.95;;;1.50;;
78372;SDS011;67656;52.074;4.758;2023-07-09T21:30:20;4.57;;;1.70;;
78372;SDS011;67656;52.074;4.758;2023-07-09T21:35:23;4.05;;;1.33;;
78372;SDS011;67656;52.074;4.758;2023-07-09T21:40:30;4.28;;;1.33;;
78372;SDS011;67656;52.074;4.758;2023-07-09T21:45:36;4.47;;;1.42;;
78372;SDS011;67656;52.074;4.758;2023-07-09T21:50:39;4.18;;;1.60;;
78372;SDS011;67656;52.074;4.758;2023-07-09T21:55:40;5.00;;;1.70;;
78372;SDS011;67656;52.074;4.758;2023-07-09T22:00:41;4.05;;;1.70;;
78372;SDS011;67656;52.074;4.758;2023-07-09T22:05:41;4.63;;;1.60;;
78372;SDS011;67656;52.074;4.758;2023-07-09T22:10:42;6.00;;;1.50;;
78372;SDS011;67656;52.074;4.758;2023-07-09T22:15:44;4.15;;;1.63;;
78372;SDS011;67656;52.074;4.758;2023-07-09T22:20:45;4.00;;;1.70;;
78372;SDS011;67656;52.074;4.758;2023-07-09T22:26:11;5.57;;;1.88;;
78372;SDS011;67656;52.074;4.758;2023-07-09T22:31:14;7.07;;;1.73;;
78372;SDS011;67656;52.074;4.758;2023-07-09T22:36:15;4.25;;;1.88;;
78372;SDS011;67656;52.074;4.758;2023-07-09T22:41:15;6.80;;;2.20;;
78372;SDS011;67656;52.074;4.758;2023-07-09T22:46:16;8.75;;;2.25;;
78372;SDS011;67656;52.074;4.758;2023-07-09T22:51:20;5.53;;;2.05;;
78372;SDS011;67656;52.074;4.758;2023-07-09T22:56:21;5.73;;;2.53;;
78372;SDS011;67656;52.074;4.758;2023-07-09T23:01:21;7.00;;;2.53;;
78372;SDS011;67656;52.074;4.758;2023-07-09T23:06:24;11.68;;;2.53;;
78372;SDS011;67656;52.074;4.758;2023-07-09T23:11:29;7.13;;;2.90;;
78372;SDS011;67656;52.074;4.758;2023-07-09T23:16:32;8.93;;;2.58;;
78372;SDS011;67656;52.074;4.758;2023-07-09T23:21:33;6.57;;;2.38;;
78372;SDS011;67656;52.074;4.758;2023-07-09T23:26:33;6.93;;;2.10;;
78372;SDS011;67656;52.074;4.758;2023-07-09T23:31:36;7.95;;;2.25;;
78372;SDS011;67656;52.074;4.758;2023-07-09T23:36:37;9.55;;;2.58;;
78372;SDS011;67656;52.074;4.758;2023-07-09T23:46:43;8.43;;;2.70;;
78372;SDS011;67656;52.074;4.758;2023-07-09T23:51:44;7.53;;;2.55;;
78372;SDS011;67656;52.074;4.758;2023-07-09T23:56:46;7.97;;;3.20;;
